createdAt,value
2019-03-13T00:00:05.864Z,39.40
2019-03-13T00:01:05.126Z,39.50
2019-03-13T00:02:05.280Z,39.60
2019-03-13T00:03:07.945Z,39.70
2019-03-13T00:04:08.584Z,39.60
2019-03-13T00:05:08.196Z,39.80
2019-03-13T00:06:05.160Z,39.90
2019-03-13T00:07:07.844Z,40.60
2019-03-13T00:08:05.873Z,40.60
2019-03-13T00:09:05.042Z,40.90
2019-03-13T00:10:08.003Z,41.80
2019-03-13T00:11:05.004Z,41.80
2019-03-13T00:12:05.242Z,42.20
2019-03-13T00:13:07.948Z,43.70
2019-03-13T00:14:05.183Z,43.70
2019-03-13T00:15:10.499Z,44.40
2019-03-13T00:16:10.548Z,44.60
2019-03-13T00:17:08.105Z,45.00
2019-03-13T00:18:05.134Z,45.00
2019-03-13T00:19:05.304Z,45.40
2019-03-13T00:20:05.352Z,45.50
2019-03-13T00:21:05.402Z,45.80
2019-03-13T00:22:05.491Z,45.90
2019-03-13T00:23:05.856Z,46.10
2019-03-13T00:24:04.978Z,46.10
2019-03-13T00:25:05.042Z,46.00
2019-03-13T00:26:07.848Z,46.20
2019-03-13T00:27:06.005Z,46.10
2019-03-13T00:28:05.161Z,46.30
2019-03-13T00:29:10.403Z,46.20
2019-03-13T00:30:10.542Z,46.30
2019-03-13T00:31:08.176Z,46.30
2019-03-13T00:32:05.094Z,46.30
2019-03-13T00:33:07.742Z,46.60
2019-03-13T00:34:05.775Z,46.60
2019-03-13T00:35:11.087Z,46.90
2019-03-13T00:36:07.657Z,46.80
2019-03-13T00:37:05.757Z,46.80
2019-03-13T00:38:05.887Z,46.80
2019-03-13T00:39:04.946Z,46.90
2019-03-13T00:40:05.233Z,47.00
2019-03-13T00:41:05.365Z,47.30
2019-03-13T00:42:07.925Z,48.10
2019-03-13T00:43:08.486Z,48.60
2019-03-13T00:44:07.811Z,48.90
2019-03-13T00:45:05.937Z,48.90
2019-03-13T00:46:05.071Z,49.20
2019-03-13T00:47:05.224Z,49.50
2019-03-13T00:48:05.431Z,49.60
2019-03-13T00:49:05.574Z,50.00
2019-03-13T00:50:05.659Z,50.20
2019-03-13T00:51:05.772Z,50.60
2019-03-13T00:52:05.973Z,50.70
2019-03-13T00:53:07.583Z,51.00
2019-03-13T00:54:05.549Z,50.90
2019-03-13T00:55:05.582Z,51.30
2019-03-13T00:56:08.232Z,52.10
2019-03-13T00:57:05.244Z,52.10
2019-03-13T00:58:07.962Z,52.40
2019-03-13T00:59:11.247Z,52.50
2019-03-13T01:00:07.684Z,52.80
2019-03-13T01:01:05.775Z,52.80
2019-03-13T01:02:05.946Z,53.20
2019-03-13T01:03:05.170Z,53.50
2019-03-13T01:04:08.041Z,53.80
2019-03-13T01:05:05.046Z,53.80
2019-03-13T01:06:05.162Z,54.20
2019-03-13T01:07:07.758Z,54.60
2019-03-13T01:08:05.760Z,54.60
2019-03-13T01:09:08.375Z,55.30
2019-03-13T01:10:07.810Z,55.30
2019-03-13T01:11:08.264Z,55.50
2019-03-13T01:12:07.854Z,55.80
2019-03-13T01:13:08.467Z,56.10
2019-03-13T01:14:07.997Z,56.50
2019-03-13T01:15:07.484Z,56.90
2019-03-13T01:16:07.941Z,56.80
2019-03-13T01:17:08.518Z,57.10
2019-03-13T01:18:05.621Z,57.20
2019-03-13T01:19:05.766Z,57.50
2019-03-13T01:20:08.413Z,57.40
2019-03-13T01:21:07.884Z,58.00
2019-03-13T01:22:05.851Z,58.10
2019-03-13T01:23:05.961Z,58.20
2019-03-13T01:24:05.171Z,58.20
2019-03-13T01:25:05.433Z,58.30
2019-03-13T01:26:05.541Z,58.90
2019-03-13T01:27:10.819Z,59.20
2019-03-13T01:28:05.960Z,59.10
2019-03-13T01:29:05.155Z,59.20
2019-03-13T01:30:07.780Z,60.00
2019-03-13T01:31:08.406Z,60.70
2019-03-13T01:32:05.382Z,60.50
2019-03-13T01:33:08.070Z,60.30
2019-03-13T01:34:07.615Z,60.50
2019-03-13T01:35:05.584Z,60.50
2019-03-13T01:36:05.874Z,60.70
2019-03-13T01:37:05.014Z,60.60
2019-03-13T01:38:07.603Z,61.10
2019-03-13T01:39:05.597Z,61.10
2019-03-13T01:40:13.496Z,61.00
2019-03-13T01:41:05.529Z,61.00
2019-03-13T01:42:05.639Z,61.30
2019-03-13T01:43:05.823Z,61.30
2019-03-13T01:44:07.723Z,62.20
2019-03-13T01:45:05.742Z,62.20
2019-03-13T01:46:06.080Z,61.70
2019-03-13T01:47:07.764Z,62.00
2019-03-13T01:48:05.775Z,62.00
2019-03-13T01:49:06.004Z,62.10
2019-03-13T01:50:07.599Z,62.70
2019-03-13T01:51:05.593Z,62.70
2019-03-13T01:52:05.848Z,63.00
2019-03-13T01:53:07.455Z,62.90
2019-03-13T01:54:05.367Z,63.00
2019-03-13T01:55:07.949Z,63.40
2019-03-13T01:56:08.435Z,63.60
2019-03-13T01:57:08.051Z,63.70
2019-03-13T01:58:05.035Z,63.60
2019-03-13T01:59:05.289Z,63.90
2019-03-13T02:00:05.482Z,64.20
2019-03-13T02:01:05.681Z,64.30
2019-03-13T02:02:05.934Z,64.60
2019-03-13T02:03:05.175Z,64.60
2019-03-13T02:04:05.310Z,64.80
2019-03-13T02:05:05.465Z,64.80
2019-03-13T02:06:05.729Z,65.00
2019-03-13T02:07:05.029Z,65.20
2019-03-13T02:08:05.584Z,52.20
2019-03-13T02:09:05.737Z,64.90
2019-03-13T02:10:08.492Z,66.00
2019-03-13T02:11:08.089Z,66.30
2019-03-13T02:12:12.807Z,66.10
2019-03-13T02:13:05.853Z,66.10
2019-03-13T02:14:05.027Z,66.40
2019-03-13T02:15:05.129Z,66.50
2019-03-13T02:16:10.332Z,66.20
2019-03-13T02:17:05.377Z,66.20
2019-03-13T02:18:05.480Z,66.30
2019-03-13T02:19:08.298Z,66.90
2019-03-13T02:20:05.460Z,66.80
2019-03-13T02:21:05.636Z,66.70
2019-03-13T02:22:05.984Z,66.70
2019-03-13T02:23:05.189Z,66.60
2019-03-13T02:24:05.289Z,67.00
2019-03-13T02:25:05.399Z,67.20
2019-03-13T02:26:08.123Z,67.20
2019-03-13T02:27:05.248Z,67.20
2019-03-13T02:28:05.413Z,67.30
2019-03-13T02:29:05.598Z,67.30
2019-03-13T02:30:05.785Z,67.00
2019-03-13T02:31:08.466Z,67.20
2019-03-13T02:32:08.014Z,67.50
2019-03-13T02:33:07.499Z,67.60
2019-03-13T02:34:08.103Z,67.50
2019-03-13T02:35:05.113Z,67.50
2019-03-13T02:36:07.601Z,68.00
2019-03-13T02:37:05.665Z,68.00
2019-03-13T02:38:05.807Z,68.10
2019-03-13T02:39:08.474Z,68.90
2019-03-13T02:40:07.965Z,68.60
2019-03-13T02:41:05.094Z,68.50
2019-03-13T02:42:05.180Z,68.50
2019-03-13T02:43:05.299Z,69.40
2019-03-13T02:44:05.907Z,69.50
2019-03-13T02:45:07.552Z,71.10
2019-03-13T02:46:08.082Z,72.10
2019-03-13T02:47:07.634Z,72.40
2019-03-13T02:48:05.650Z,72.40
2019-03-13T02:49:08.357Z,73.40
2019-03-13T02:50:05.567Z,73.40
2019-03-13T02:51:05.718Z,74.60
2019-03-13T02:52:05.976Z,75.60
2019-03-13T02:53:05.309Z,76.20
2019-03-13T02:54:05.520Z,76.50
2019-03-13T02:55:10.801Z,78.20
2019-03-13T02:56:08.627Z,78.50
2019-03-13T02:57:05.652Z,78.50
2019-03-13T02:58:05.954Z,78.40
2019-03-13T02:59:05.092Z,78.30
2019-03-13T03:00:08.061Z,78.30
2019-03-13T03:01:07.647Z,78.30
2019-03-13T03:02:05.796Z,78.30
2019-03-13T03:03:10.052Z,78.90
2019-03-13T03:04:05.198Z,78.90
2019-03-13T03:05:05.340Z,79.20
2019-03-13T03:06:05.445Z,79.00
2019-03-13T03:07:05.581Z,79.10
2019-03-13T03:08:08.319Z,79.40
2019-03-13T03:09:10.416Z,79.50
2019-03-13T03:10:05.416Z,79.60
2019-03-13T03:11:08.136Z,79.50
2019-03-13T03:12:05.131Z,79.50
2019-03-13T03:13:07.820Z,79.90
2019-03-13T03:14:05.851Z,79.90
2019-03-13T03:15:06.046Z,79.80
2019-03-13T03:16:05.796Z,79.70
2019-03-13T03:17:06.050Z,79.90
2019-03-13T03:18:05.231Z,79.50
2019-03-13T03:19:05.510Z,79.40
2019-03-13T03:20:05.660Z,79.20
2019-03-13T03:21:08.366Z,79.10
2019-03-13T03:22:05.308Z,79.10
2019-03-13T03:23:05.428Z,79.20
2019-03-13T03:24:05.547Z,79.20
2019-03-13T03:25:10.710Z,79.60
2019-03-13T03:26:05.719Z,79.60
2019-03-13T03:27:05.825Z,79.80
2019-03-13T03:28:08.464Z,79.50
2019-03-13T03:29:07.985Z,79.50
2019-03-13T03:30:08.654Z,79.40
2019-03-13T03:31:05.733Z,79.50
2019-03-13T03:32:06.319Z,79.20
2019-03-13T03:33:05.470Z,79.20
2019-03-13T03:34:05.774Z,79.10
2019-03-13T03:35:05.944Z,79.00
2019-03-13T03:36:07.657Z,79.00
2019-03-13T03:37:05.694Z,79.00
2019-03-13T03:38:05.875Z,78.90
2019-03-13T03:39:07.672Z,78.90
2019-03-13T03:40:05.797Z,78.90
2019-03-13T03:41:05.949Z,78.80
2019-03-13T03:42:07.663Z,78.80
2019-03-13T03:43:05.764Z,78.70
2019-03-13T03:44:07.776Z,78.80
2019-03-13T03:45:08.263Z,78.70
2019-03-13T03:46:05.221Z,78.80
2019-03-13T03:47:08.027Z,78.70
2019-03-13T03:48:07.726Z,78.60
2019-03-13T03:49:10.978Z,78.80
2019-03-13T03:50:07.564Z,78.80
2019-03-13T03:51:05.542Z,78.80
2019-03-13T03:52:05.740Z,78.80
2019-03-13T03:53:05.942Z,78.80
2019-03-13T03:54:07.559Z,78.80
2019-03-13T03:55:05.579Z,78.80
2019-03-13T03:56:05.885Z,78.80
2019-03-13T03:57:07.524Z,78.60
2019-03-13T03:58:05.484Z,78.60
2019-03-13T03:59:05.554Z,78.70
2019-03-13T04:00:08.263Z,79.20
2019-03-13T04:01:05.398Z,79.20
2019-03-13T04:02:05.646Z,79.50
2019-03-13T04:03:05.879Z,79.30
2019-03-13T04:04:05.390Z,79.30
2019-03-13T04:05:05.666Z,79.40
2019-03-13T04:06:05.810Z,79.60
2019-03-13T04:07:08.661Z,79.90
2019-03-13T04:08:05.749Z,79.90
2019-03-13T04:09:08.426Z,79.70
2019-03-13T04:10:07.948Z,79.80
2019-03-13T04:11:05.939Z,79.70
2019-03-13T04:12:05.105Z,79.90
2019-03-13T04:13:05.217Z,79.60
2019-03-13T04:14:08.045Z,79.40
2019-03-13T04:15:05.145Z,79.40
2019-03-13T04:16:08.043Z,79.40
2019-03-13T04:17:05.027Z,79.40
2019-03-13T04:18:05.134Z,79.40
2019-03-13T04:19:05.434Z,79.40
2019-03-13T04:20:08.261Z,79.30
2019-03-13T04:21:07.942Z,79.40
2019-03-13T04:22:12.719Z,79.30
2019-03-13T04:23:05.746Z,79.30
2019-03-13T04:24:06.037Z,79.20
2019-03-13T04:25:07.909Z,79.40
2019-03-13T04:26:13.190Z,79.20
2019-03-13T04:27:08.052Z,79.30
2019-03-13T04:28:10.175Z,79.40
2019-03-13T04:29:05.119Z,79.40
2019-03-13T04:30:07.725Z,79.60
2019-03-13T04:31:05.673Z,79.60
2019-03-13T04:32:05.817Z,79.60
2019-03-13T04:33:08.415Z,79.60
2019-03-13T04:34:05.463Z,79.60
2019-03-13T04:35:08.279Z,79.60
2019-03-13T04:36:07.922Z,79.30
2019-03-13T04:37:08.524Z,79.00
2019-03-13T04:38:05.706Z,79.00
2019-03-13T04:39:05.850Z,78.90
2019-03-13T04:40:05.953Z,78.80
2019-03-13T04:41:05.157Z,78.70
2019-03-13T04:42:05.348Z,78.50
2019-03-13T04:43:05.545Z,78.20
2019-03-13T04:44:08.342Z,77.70
2019-03-13T04:45:05.484Z,77.70
2019-03-13T04:46:08.123Z,76.80
2019-03-13T04:47:05.170Z,76.80
2019-03-13T04:48:05.363Z,76.40
2019-03-13T04:49:05.442Z,76.00
2019-03-13T04:50:05.662Z,75.80
2019-03-13T04:51:08.471Z,75.10
2019-03-13T04:52:08.189Z,74.50
2019-03-13T04:53:07.919Z,74.00
2019-03-13T04:54:08.412Z,73.80
2019-03-13T04:55:10.586Z,73.50
2019-03-13T04:56:05.791Z,73.50
2019-03-13T04:57:08.537Z,72.90
2019-03-13T04:58:05.577Z,72.90
2019-03-13T04:59:05.002Z,72.80
2019-03-13T05:00:05.098Z,72.70
2019-03-13T05:01:05.197Z,72.60
2019-03-13T05:02:07.918Z,72.10
2019-03-13T05:03:08.452Z,72.00
2019-03-13T05:04:07.919Z,72.10
2019-03-13T05:05:05.888Z,72.00
2019-03-13T05:06:05.276Z,72.00
2019-03-13T05:07:07.915Z,72.10
2019-03-13T05:08:08.520Z,72.40
2019-03-13T05:09:05.549Z,72.20
2019-03-13T05:10:05.684Z,72.50
2019-03-13T05:11:08.375Z,72.70
2019-03-13T05:12:05.347Z,72.70
2019-03-13T05:13:08.224Z,72.80
2019-03-13T05:14:05.471Z,72.80
2019-03-13T05:15:08.234Z,72.80
2019-03-13T05:16:05.409Z,72.80
2019-03-13T05:17:05.743Z,72.70
2019-03-13T05:18:06.010Z,72.50
2019-03-13T05:19:05.406Z,72.40
2019-03-13T05:20:05.659Z,72.40
2019-03-13T05:21:05.778Z,72.40
2019-03-13T05:22:06.219Z,72.40
2019-03-13T05:23:05.376Z,72.50
2019-03-13T05:24:05.513Z,72.40
2019-03-13T05:25:08.905Z,72.50
2019-03-13T05:26:05.972Z,72.50
2019-03-13T05:27:08.505Z,72.60
2019-03-13T05:28:05.553Z,72.60
2019-03-13T05:29:08.377Z,72.60
2019-03-13T05:30:05.372Z,72.60
2019-03-13T05:31:05.465Z,72.70
2019-03-13T05:32:05.725Z,72.80
2019-03-13T05:33:06.058Z,72.80
2019-03-13T05:34:08.644Z,73.00
2019-03-13T05:35:05.693Z,73.00
2019-03-13T05:36:05.790Z,73.00
2019-03-13T05:37:06.062Z,73.20
2019-03-13T05:38:07.756Z,73.50
2019-03-13T05:39:08.391Z,73.40
2019-03-13T05:40:05.618Z,73.40
2019-03-13T05:41:05.742Z,73.50
2019-03-13T05:42:05.880Z,73.50
2019-03-13T05:43:05.655Z,73.70
2019-03-13T05:44:05.820Z,73.60
2019-03-13T05:45:08.698Z,73.80
2019-03-13T05:46:08.402Z,73.90
2019-03-13T05:47:08.054Z,74.00
2019-03-13T05:48:05.154Z,74.10
2019-03-13T05:49:05.488Z,74.30
2019-03-13T05:50:07.559Z,74.30
2019-03-13T05:51:08.229Z,74.40
2019-03-13T05:52:07.952Z,74.40
2019-03-13T05:53:13.123Z,74.20
2019-03-13T05:54:10.516Z,74.40
2019-03-13T05:55:07.746Z,74.40
2019-03-13T05:56:08.474Z,74.10
2019-03-13T05:57:05.568Z,74.10
2019-03-13T05:58:08.319Z,73.60
2019-03-13T05:59:07.860Z,73.30
2019-03-13T06:00:05.937Z,73.20
2019-03-13T06:01:05.077Z,73.10
2019-03-13T06:02:07.948Z,72.80
2019-03-13T06:03:05.058Z,72.80
2019-03-13T06:04:05.987Z,72.70
2019-03-13T06:05:05.107Z,72.40
2019-03-13T06:06:05.228Z,72.20
2019-03-13T06:07:07.892Z,71.40
2019-03-13T06:08:06.050Z,71.40
2019-03-13T06:09:05.414Z,69.90
2019-03-13T06:10:05.824Z,69.00
2019-03-13T06:11:08.460Z,65.70
2019-03-13T06:12:07.999Z,64.80
2019-03-13T06:13:05.098Z,64.80
2019-03-13T06:14:05.331Z,63.50
2019-03-13T06:15:08.092Z,62.30
2019-03-13T06:16:07.747Z,60.70
2019-03-13T06:17:10.989Z,60.50
2019-03-13T06:18:10.281Z,59.70
2019-03-13T06:19:08.030Z,58.40
2019-03-13T06:20:05.088Z,58.40
2019-03-13T06:21:05.426Z,58.30
2019-03-13T06:22:05.608Z,58.00
2019-03-13T06:23:05.763Z,58.10
2019-03-13T06:24:06.103Z,57.60
2019-03-13T06:25:07.954Z,57.30
2019-03-13T06:26:07.499Z,56.60
2019-03-13T06:27:05.743Z,56.50
2019-03-13T06:28:05.929Z,56.60
2019-03-13T06:29:07.669Z,56.30
2019-03-13T06:30:05.681Z,56.20
2019-03-13T06:31:05.780Z,56.00
2019-03-13T06:32:06.103Z,55.70
2019-03-13T06:33:10.441Z,54.60
2019-03-13T06:34:10.145Z,54.10
2019-03-13T06:35:08.039Z,53.90
2019-03-13T06:36:05.102Z,53.80
2019-03-13T06:37:08.010Z,53.30
2019-03-13T06:38:05.064Z,53.30
2019-03-13T06:39:08.014Z,52.80
2019-03-13T06:40:05.241Z,52.80
2019-03-13T06:41:05.801Z,52.10
2019-03-13T06:42:05.050Z,51.40
2019-03-13T06:43:07.822Z,51.20
2019-03-13T06:44:05.840Z,51.30
2019-03-13T06:45:07.662Z,51.50
2019-03-13T06:46:08.300Z,51.40
2019-03-13T06:47:07.914Z,51.40
2019-03-13T06:48:05.975Z,51.40
2019-03-13T06:49:07.907Z,51.80
2019-03-13T06:50:05.926Z,51.80
2019-03-13T06:51:07.582Z,51.60
2019-03-13T06:52:05.599Z,51.60
2019-03-13T06:53:08.390Z,51.60
2019-03-13T06:54:05.481Z,51.60
2019-03-13T06:55:10.792Z,51.80
2019-03-13T06:56:08.380Z,51.90
2019-03-13T06:57:05.421Z,51.90
2019-03-13T06:58:05.100Z,51.90
2019-03-13T06:59:05.294Z,51.90
2019-03-13T07:00:08.055Z,52.80
2019-03-13T07:01:05.140Z,52.80
2019-03-13T07:02:07.943Z,52.90
2019-03-13T07:03:06.015Z,52.90
2019-03-13T07:04:07.887Z,52.20
2019-03-13T07:05:08.551Z,51.60
2019-03-13T07:06:12.724Z,51.40
2019-03-13T07:07:08.491Z,51.40
2019-03-13T07:08:05.169Z,51.40
2019-03-13T07:09:08.213Z,51.00
2019-03-13T07:10:05.584Z,50.90
2019-03-13T07:11:05.707Z,50.90
2019-03-13T07:12:08.540Z,50.30
2019-03-13T07:13:05.786Z,50.30
2019-03-13T07:14:05.922Z,50.00
2019-03-13T07:15:07.667Z,49.60
2019-03-13T07:16:10.710Z,48.80
2019-03-13T07:17:05.721Z,48.80
2019-03-13T07:18:05.583Z,48.80
2019-03-13T07:19:05.935Z,48.60
2019-03-13T07:20:07.790Z,48.80
2019-03-13T07:21:05.847Z,48.90
2019-03-13T07:22:05.976Z,48.70
2019-03-13T07:23:10.141Z,48.50
2019-03-13T07:24:05.078Z,48.50
2019-03-13T07:25:05.367Z,48.60
2019-03-13T07:26:07.919Z,48.30
2019-03-13T07:27:05.995Z,48.30
2019-03-13T07:28:05.273Z,48.30
2019-03-13T07:29:12.989Z,48.50
2019-03-13T07:30:05.089Z,48.80
2019-03-13T07:31:05.318Z,49.20
2019-03-13T07:32:05.503Z,49.50
2019-03-13T07:33:13.298Z,50.10
2019-03-13T07:34:07.823Z,50.60
2019-03-13T07:35:10.840Z,51.00
2019-03-13T07:36:08.322Z,51.20
2019-03-13T07:37:07.799Z,50.70
2019-03-13T07:38:06.089Z,50.80
2019-03-13T07:39:05.363Z,50.70
2019-03-13T07:40:08.024Z,51.10
2019-03-13T07:41:07.857Z,51.60
2019-03-13T07:42:08.379Z,51.60
2019-03-13T07:43:05.369Z,51.60
2019-03-13T07:44:05.907Z,51.70
2019-03-13T07:45:05.166Z,51.60
2019-03-13T07:46:13.055Z,51.60
2019-03-13T07:47:05.090Z,51.50
2019-03-13T07:48:05.370Z,51.30
2019-03-13T07:49:07.986Z,50.50
2019-03-13T07:50:07.654Z,50.60
2019-03-13T07:51:08.189Z,50.40
2019-03-13T07:52:05.158Z,50.40
2019-03-13T07:53:07.895Z,50.10
2019-03-13T07:54:08.454Z,49.90
2019-03-13T07:55:05.625Z,49.90
2019-03-13T07:56:05.861Z,49.80
2019-03-13T07:57:07.558Z,49.80
2019-03-13T07:58:05.843Z,49.80
2019-03-13T07:59:07.670Z,50.40
2019-03-13T08:00:10.724Z,50.30
2019-03-13T08:01:05.778Z,50.30
2019-03-13T08:02:08.477Z,50.70
2019-03-13T08:03:05.581Z,50.70
2019-03-13T08:04:06.002Z,50.80
2019-03-13T08:05:07.706Z,50.60
2019-03-13T08:06:08.427Z,51.00
2019-03-13T08:07:07.916Z,50.50
2019-03-13T08:08:05.955Z,50.60
2019-03-13T08:09:05.146Z,50.80
2019-03-13T08:10:05.470Z,51.30
2019-03-13T08:11:05.709Z,51.40
2019-03-13T08:12:05.837Z,51.00
2019-03-13T08:13:04.986Z,51.00
2019-03-13T08:14:05.244Z,51.20
2019-03-13T08:15:05.359Z,51.30
2019-03-13T08:16:05.426Z,51.30
2019-03-13T08:17:08.133Z,52.00
2019-03-13T08:18:05.098Z,52.00
2019-03-13T08:19:05.356Z,52.00
2019-03-13T08:20:05.660Z,51.80
2019-03-13T08:21:05.842Z,52.00
2019-03-13T08:22:06.075Z,52.30
2019-03-13T08:23:05.252Z,52.40
2019-03-13T08:24:05.388Z,52.50
2019-03-13T08:25:08.602Z,52.70
2019-03-13T08:26:05.756Z,52.70
2019-03-13T08:27:08.423Z,52.90
2019-03-13T08:28:05.379Z,52.90
2019-03-13T08:29:10.488Z,52.80
2019-03-13T08:30:05.514Z,52.80
2019-03-13T08:31:05.700Z,52.90
2019-03-13T08:32:08.405Z,53.10
2019-03-13T08:33:07.883Z,53.10
2019-03-13T08:34:06.002Z,53.10
2019-03-13T08:35:07.824Z,53.40
2019-03-13T08:36:06.060Z,53.30
2019-03-13T08:37:05.274Z,53.00
2019-03-13T08:38:05.446Z,53.10
2019-03-13T08:39:05.720Z,53.30
2019-03-13T08:40:05.890Z,53.30
2019-03-13T08:41:04.993Z,53.40
2019-03-13T08:42:05.182Z,53.50
2019-03-13T08:43:05.286Z,53.60
2019-03-13T08:44:05.407Z,53.90
2019-03-13T08:45:05.695Z,53.80
2019-03-13T08:46:05.864Z,53.50
2019-03-13T08:47:06.163Z,53.60
2019-03-13T08:48:05.334Z,53.20
2019-03-13T08:49:05.491Z,53.10
2019-03-13T08:50:08.265Z,53.10
2019-03-13T08:51:05.310Z,53.00
2019-03-13T08:52:07.965Z,53.60
2019-03-13T08:53:08.422Z,53.80
2019-03-13T08:54:07.914Z,53.10
2019-03-13T08:55:11.021Z,52.70
2019-03-13T08:56:05.131Z,52.90
2019-03-13T08:57:05.290Z,53.00
2019-03-13T08:58:05.529Z,53.00
2019-03-13T08:59:05.719Z,52.70
2019-03-13T09:00:06.005Z,52.80
2019-03-13T09:01:05.356Z,52.70
2019-03-13T09:02:08.060Z,53.10
2019-03-13T09:03:05.197Z,53.10
2019-03-13T09:04:05.538Z,53.20
2019-03-13T09:05:05.632Z,53.40
2019-03-13T09:06:06.030Z,53.40
2019-03-13T09:07:05.347Z,53.10
2019-03-13T09:08:05.627Z,52.80
2019-03-13T09:09:05.814Z,52.90
2019-03-13T09:10:05.932Z,52.70
2019-03-13T09:11:05.077Z,53.00
2019-03-13T09:12:05.232Z,53.00
2019-03-13T09:13:05.375Z,53.00
2019-03-13T09:14:05.550Z,53.20
2019-03-13T09:15:08.236Z,52.90
2019-03-13T09:16:05.202Z,52.90
2019-03-13T09:17:07.858Z,52.00
2019-03-13T09:18:05.926Z,52.00
2019-03-13T09:19:05.072Z,51.70
2019-03-13T09:20:07.819Z,51.10
2019-03-13T09:21:05.898Z,51.00
2019-03-13T09:22:05.107Z,50.50
2019-03-13T09:23:07.722Z,49.80
2019-03-13T09:24:05.883Z,49.90
2019-03-13T09:25:12.787Z,49.50
2019-03-13T09:26:05.053Z,49.10
2019-03-13T09:27:07.713Z,49.20
2019-03-13T09:28:05.894Z,49.20
2019-03-13T09:29:05.060Z,49.00
2019-03-13T09:30:05.345Z,47.90
2019-03-13T09:31:10.495Z,48.40
2019-03-13T09:32:05.604Z,48.40
2019-03-13T09:33:08.313Z,47.70
2019-03-13T09:34:05.346Z,47.70
2019-03-13T09:35:05.582Z,47.60
2019-03-13T09:36:05.655Z,47.30
2019-03-13T09:37:05.801Z,46.40
2019-03-13T09:38:07.531Z,46.80
2019-03-13T09:39:07.977Z,47.50
2019-03-13T09:40:08.488Z,48.10
2019-03-13T09:41:05.507Z,48.10
2019-03-13T09:42:05.684Z,48.50
2019-03-13T09:43:05.945Z,48.40
2019-03-13T09:44:07.585Z,47.20
2019-03-13T09:45:08.004Z,46.60
2019-03-13T09:46:05.935Z,46.60
2019-03-13T09:47:05.116Z,46.50
2019-03-13T09:48:05.198Z,46.70
2019-03-13T09:49:08.434Z,47.00
2019-03-13T09:50:05.470Z,47.00
2019-03-13T09:51:05.545Z,46.90
2019-03-13T09:52:05.623Z,47.20
2019-03-13T09:53:08.391Z,47.00
2019-03-13T09:54:05.443Z,46.90
2019-03-13T09:55:05.315Z,46.40
2019-03-13T09:56:05.416Z,46.10
2019-03-13T09:57:05.682Z,46.10
2019-03-13T09:58:05.794Z,46.20
2019-03-13T09:59:05.902Z,46.60
2019-03-13T10:00:05.166Z,46.40
2019-03-13T10:01:10.455Z,46.50
2019-03-13T10:02:05.463Z,46.50
2019-03-13T10:03:05.600Z,46.70
2019-03-13T10:04:08.313Z,47.50
2019-03-13T10:05:05.347Z,47.50
2019-03-13T10:06:05.476Z,48.40
2019-03-13T10:07:05.761Z,49.40
2019-03-13T10:08:08.360Z,50.70
2019-03-13T10:09:05.543Z,50.70
2019-03-13T10:10:05.954Z,51.20
2019-03-13T10:11:05.159Z,51.60
2019-03-13T10:12:07.848Z,51.70
2019-03-13T10:13:05.788Z,51.70
2019-03-13T10:14:06.018Z,51.30
2019-03-13T10:15:05.220Z,51.20
2019-03-13T10:16:05.424Z,51.30
2019-03-13T10:17:11.570Z,51.00
2019-03-13T10:18:05.731Z,51.00
2019-03-13T10:19:05.828Z,51.00
2019-03-13T10:20:08.491Z,51.60
2019-03-13T10:21:05.596Z,51.50
2019-03-13T10:22:05.850Z,51.20
2019-03-13T10:23:05.325Z,50.40
2019-03-13T10:24:05.433Z,46.70
2019-03-13T10:25:10.780Z,49.20
2019-03-13T10:26:08.303Z,48.80
2019-03-13T10:27:05.284Z,48.80
2019-03-13T10:28:05.465Z,48.40
2019-03-13T10:29:08.198Z,47.40
2019-03-13T10:30:05.186Z,47.40
2019-03-13T10:31:05.325Z,47.10
2019-03-13T10:32:05.591Z,47.20
2019-03-13T10:33:05.967Z,47.10
2019-03-13T10:34:07.600Z,47.10
2019-03-13T10:35:05.598Z,47.10
2019-03-13T10:36:05.859Z,47.40
2019-03-13T10:37:05.123Z,46.80
2019-03-13T10:38:14.526Z,46.20
2019-03-13T10:39:08.218Z,45.70
2019-03-13T10:40:07.903Z,45.50
2019-03-13T10:41:08.452Z,45.80
2019-03-13T10:42:05.393Z,45.80
2019-03-13T10:43:05.787Z,46.00
2019-03-13T10:44:05.973Z,46.10
2019-03-13T10:45:05.169Z,46.60
2019-03-13T10:46:05.298Z,46.70
2019-03-13T10:47:08.007Z,47.50
2019-03-13T10:48:10.153Z,47.90
2019-03-13T10:49:07.783Z,47.60
2019-03-13T10:50:05.951Z,47.60
2019-03-13T10:51:05.118Z,46.60
2019-03-13T10:52:05.364Z,46.30
2019-03-13T10:53:05.561Z,46.70
2019-03-13T10:54:05.985Z,47.10
2019-03-13T10:55:05.362Z,47.40
2019-03-13T10:56:05.595Z,47.50
2019-03-13T10:57:05.976Z,46.60
2019-03-13T10:58:05.080Z,45.60
2019-03-13T10:59:05.197Z,45.50
2019-03-13T11:00:07.821Z,45.20
2019-03-13T11:01:05.864Z,45.20
2019-03-13T11:02:05.981Z,45.10
2019-03-13T11:03:05.130Z,44.90
2019-03-13T11:04:05.398Z,44.80
2019-03-13T11:05:05.536Z,44.40
2019-03-13T11:06:05.880Z,44.10
2019-03-13T11:07:05.156Z,44.30
2019-03-13T11:08:07.811Z,43.90
2019-03-13T11:09:05.964Z,43.90
2019-03-13T11:10:07.626Z,43.90
2019-03-13T11:11:05.739Z,43.80
2019-03-13T11:12:05.986Z,43.90
2019-03-13T11:13:05.099Z,43.60
2019-03-13T11:14:16.190Z,43.90
2019-03-13T11:15:05.360Z,43.90
2019-03-13T11:16:08.085Z,44.30
2019-03-13T11:17:05.138Z,44.30
2019-03-13T11:18:05.377Z,44.60
2019-03-13T11:19:07.978Z,44.40
2019-03-13T11:20:06.037Z,44.50
2019-03-13T11:21:07.661Z,44.30
2019-03-13T11:22:05.606Z,44.30
2019-03-13T11:23:05.692Z,44.50
2019-03-13T11:24:08.434Z,44.90
2019-03-13T11:25:05.436Z,44.80
2019-03-13T11:26:05.594Z,45.00
2019-03-13T11:27:05.837Z,45.10
2019-03-13T11:28:08.556Z,45.10
2019-03-13T11:29:05.705Z,45.10
2019-03-13T11:30:10.966Z,44.60
2019-03-13T11:31:08.558Z,44.60
2019-03-13T11:32:05.715Z,44.70
2019-03-13T11:33:05.910Z,44.90
2019-03-13T11:34:07.512Z,45.10
2019-03-13T11:35:08.070Z,45.10
2019-03-13T11:36:05.226Z,45.20
2019-03-13T11:37:10.466Z,45.30
2019-03-13T11:38:10.559Z,44.70
2019-03-13T11:39:05.657Z,44.70
2019-03-13T11:40:05.923Z,44.60
2019-03-13T11:41:05.270Z,44.30
2019-03-13T11:42:05.470Z,44.50
2019-03-13T11:43:05.610Z,44.90
2019-03-13T11:44:07.883Z,44.70
2019-03-13T11:45:08.474Z,44.80
2019-03-13T11:46:05.575Z,44.90
2019-03-13T11:47:05.698Z,45.30
2019-03-13T11:48:08.376Z,45.40
2019-03-13T11:49:05.409Z,45.40
2019-03-13T11:50:05.526Z,45.30
2019-03-13T11:51:08.250Z,44.00
2019-03-13T11:52:07.879Z,43.70
2019-03-13T11:53:05.932Z,43.70
2019-03-13T11:54:10.060Z,43.60
2019-03-13T11:55:05.229Z,43.70
2019-03-13T11:56:05.386Z,44.10
2019-03-13T11:57:08.112Z,44.10
2019-03-13T11:58:05.155Z,44.20
2019-03-13T11:59:05.384Z,44.30
2019-03-13T12:00:05.544Z,44.50
2019-03-13T12:01:05.731Z,43.90
2019-03-13T12:02:06.029Z,43.60
2019-03-13T12:03:05.192Z,43.10
2019-03-13T12:04:07.986Z,41.80
2019-03-13T12:05:04.967Z,41.70
2019-03-13T12:06:05.190Z,41.40
2019-03-13T12:07:07.770Z,42.50
2019-03-13T12:08:05.753Z,42.50
2019-03-13T12:09:05.875Z,42.50
2019-03-13T12:10:04.985Z,42.20
2019-03-13T12:11:07.602Z,41.00
2019-03-13T12:12:05.655Z,41.00
2019-03-13T12:13:05.105Z,40.20
2019-03-13T12:14:05.366Z,40.30
2019-03-13T12:15:05.535Z,39.40
2019-03-13T12:16:10.727Z,39.90
2019-03-13T12:17:05.700Z,39.90
2019-03-13T12:18:05.938Z,40.30
2019-03-13T12:19:05.134Z,40.40
2019-03-13T12:20:05.248Z,40.20
2019-03-13T12:21:07.867Z,40.50
2019-03-13T12:22:08.638Z,40.40
2019-03-13T12:23:08.164Z,40.10
2019-03-13T12:24:05.114Z,40.10
2019-03-13T12:25:10.351Z,40.30
2019-03-13T12:26:05.384Z,40.30
2019-03-13T12:27:10.575Z,40.40
2019-03-13T12:28:10.586Z,40.90
2019-03-13T12:29:05.674Z,40.90
2019-03-13T12:30:05.821Z,41.30
2019-03-13T12:31:08.487Z,39.90
2019-03-13T12:32:08.146Z,39.20
2019-03-13T12:33:05.315Z,39.10
2019-03-13T12:34:05.452Z,38.70
2019-03-13T12:35:05.681Z,38.70
2019-03-13T12:36:08.519Z,39.20
2019-03-13T12:37:05.561Z,39.30
2019-03-13T12:38:08.264Z,39.40
2019-03-13T12:39:05.259Z,39.40
2019-03-13T12:40:07.886Z,39.70
2019-03-13T12:41:05.811Z,39.70
2019-03-13T12:42:13.485Z,38.90
2019-03-13T12:43:05.460Z,38.90
2019-03-13T12:44:05.954Z,39.20
2019-03-13T12:45:07.549Z,39.70
2019-03-13T12:46:05.517Z,39.70
2019-03-13T12:47:05.664Z,39.20
2019-03-13T12:48:17.178Z,39.00
2019-03-13T12:49:07.953Z,38.90
2019-03-13T12:50:05.915Z,38.90
2019-03-13T12:51:05.019Z,39.00
2019-03-13T12:52:05.130Z,39.00